Kezdőlap
METAR-TAF:

METAR-TAF

Repülőterek :

Torinói nemzetközi repülőtér

Torino, Olaszország

földrajzi szélesség: 45-13N, földrajzi hosszúság: 007-39E, magasság: 301 m

Jelenlegi meteorológiai megfigyelések

A jelentés 29 perccel ezelõtt készült, 08:20 UTC
Kelet-északkeleti szél 3 kt
Hőmérséklet 5°C
Páratartalom 41%
Légköri nyomás 1012 hPa
Látótávolság 10 km, vagy több
felhőtlen 1500 m magasságban, és nincs gomolyfelhõ

METAR: LIMF 270820Z 07003KT CAVOK 05/M07 Q1012

Idő: 09:49 (08:49 UTC)

Előrejelzés

A jelentés 3 órával és 49 perccel ezelõtt készült, 05:00 UTC
Az előrejelzés 27-én 06 óra UTC és 28-én 06 óra UTC között érvényes
Különbözõ irányokból fújó szél 6 kt
Látótávolság 10 km, vagy több
Kevés felhő 6000 lábon

TAF: LIMF 270500Z 2706/2806 VRB06KT 9999 FEW060

Meteorológiai megfigyelések és előrejelzések több, mint 4000 repülőtéren (METAR és TAF jelentéseket).

A térképen piros és sárga pontok jelzik az elérhető meteorológiai állomásokat.

Mozgassa az egeret a pont fölött, hogy megjelenjen az állomás neve.

Azután kattintson az időjárási megfigyelések és előrejelzések megtekintéséhez.

A térkép megváltoztatása: kattintson a fekete keresztel jelölt zöld gombra ráközelítéshez, a vonallal jelölt zöld gombra távolításhoz, vagy a zöld nyilakra a szomszédos térképek eléréséhez.


METAR-TAF: